Rickenbacker International Airport
KLCK : now visible

Airfield :











YOU CAN JOIN US ON...

 
LOGIN :

Register | Disclaimer

   EN    FR    IT 

 









Legend :    VFR   Marginal VFR   IFR   Intensive IFR   Very Intensive IFR
Visi :
Ceiling :
>= 8 km
>= 3000ft
5 to 8 km
1000 to 3000 ft
1500m to 5 km
500 to 1000 ft
800 to 1500m
200 to 500 ft
< 800m
< 200 ft
Symbols :   Thunderstorms  Fog  Heavy snow  Heavy precipitations  Wind > 20 kt






- Airport Elevation : 744 ft


KLCK - Rickenbacker International

CURRENT METAR :
  • 200755Z AUTO 18010KT 10SM CLR 20/16 A2966 RMK AO2 LTG DSNT SW T02000155

EXPIRED METARs :
  • 200655Z AUTO 19008KT 10SM CLR 20/16 A2967 RMK AO2 LTG DSNT SE T01970156
  • 200555Z AUTO 18013G20KT 10SM CLR 20/16 A2965 RMK AO2 LTG DSNT SE AND S T02000160 10241 20181 402550160

TAF KLCK
Valid from the 20 at 07:00 until the 21 at 06:00 UTC


200721Z 2007/2106 18010KT P6SM SCT050 BKN100
FM200900 19014KT 5SM -SHRA BR VCTS SCT020 OVC050CB
TEMPO 2009/2012 2SM +TSRA BR OVC020CB
FM201200 18013KT P6SM VCSH SCT050
FM201400 21013KT P6SM BKN120
FM201600 22018G30KT P6SM BKN250
FM202300 21014KT P6SM SKC
KZID FIR / North America



MET'MAP, your aeronautical weather chart ! - Copyright ORBIFLY December 2007 - Disclaimer

ORBIFLY MET'MAP TEAM :

Programming & Development : Alexandra Zaïnal
Original concept : Baudouin d'Aumeries
Technical & hardware support : Manuel Goepfert
Assistance : Marc-Olivier Méhu

Contact : metmap@orbifly.com




SOURCES & CREDITS :

   NOAA       Earth
Advisory